sensor_id;sensor_type;location;lat;lon;timestamp;pressure;altitude;pressure_sealevel;temperature;humidity
25084;BME280;13075;55.682;37.564;2023-07-08T00:02:18;99339.88;;;28.51;100.00
25084;BME280;13075;55.682;37.564;2023-07-08T00:04:43;99333.06;;;28.48;100.00
25084;BME280;13075;55.682;37.564;2023-07-08T00:07:10;99329.00;;;28.28;100.00
25084;BME280;13075;55.682;37.564;2023-07-08T00:09:37;99325.47;;;28.45;100.00
25084;BME280;13075;55.682;37.564;2023-07-08T00:12:04;99323.50;;;28.37;100.00
25084;BME280;13075;55.682;37.564;2023-07-08T00:14:33;99324.47;;;28.32;100.00
25084;BME280;13075;55.682;37.564;2023-07-08T00:16:58;99330.81;;;28.41;100.00
25084;BME280;13075;55.682;37.564;2023-07-08T00:19:24;99337.13;;;28.59;100.00
25084;BME280;13075;55.682;37.564;2023-07-08T00:21:50;99341.31;;;28.31;100.00
25084;BME280;13075;55.682;37.564;2023-07-08T00:24:17;99339.97;;;27.72;100.00
25084;BME280;13075;55.682;37.564;2023-07-08T00:26:42;99340.00;;;28.20;100.00
25084;BME280;13075;55.682;37.564;2023-07-08T00:29:11;99338.34;;;28.02;100.00
25084;BME280;13075;55.682;37.564;2023-07-08T00:31:37;99337.44;;;28.23;100.00
25084;BME280;13075;55.682;37.564;2023-07-08T00:34:03;99340.50;;;28.48;100.00
25084;BME280;13075;55.682;37.564;2023-07-08T00:36:28;99341.34;;;28.48;100.00
25084;BME280;13075;55.682;37.564;2023-07-08T00:38:54;99346.66;;;28.27;100.00
25084;BME280;13075;55.682;37.564;2023-07-08T00:41:21;99346.50;;;28.58;100.00
25084;BME280;13075;55.682;37.564;2023-07-08T00:43:50;99358.00;;;28.60;100.00
25084;BME280;13075;55.682;37.564;2023-07-08T00:48:43;99345.53;;;28.28;100.00
25084;BME280;13075;55.682;37.564;2023-07-08T00:51:10;99339.34;;;28.31;100.00
25084;BME280;13075;55.682;37.564;2023-07-08T00:53:36;99343.91;;;28.36;100.00
25084;BME280;13075;55.682;37.564;2023-07-08T00:56:16;99349.22;;;28.24;100.00
25084;BME280;13075;55.682;37.564;2023-07-08T00:58:49;99350.84;;;28.25;100.00
25084;BME280;13075;55.682;37.564;2023-07-08T01:01:15;99348.06;;;28.16;100.00
25084;BME280;13075;55.682;37.564;2023-07-08T01:06:31;99351.56;;;28.00;100.00
25084;BME280;13075;55.682;37.564;2023-07-08T01:09:01;99348.44;;;28.23;100.00
25084;BME280;13075;55.682;37.564;2023-07-08T01:11:30;99353.78;;;28.37;100.00
25084;BME280;13075;55.682;37.564;2023-07-08T01:13:57;99348.28;;;28.28;100.00
25084;BME280;13075;55.682;37.564;2023-07-08T01:16:23;99355.41;;;28.38;100.00
25084;BME280;13075;55.682;37.564;2023-07-08T01:18:49;99363.47;;;28.34;100.00
25084;BME280;13075;55.682;37.564;2023-07-08T01:21:37;99352.50;;;28.43;100.00
25084;BME280;13075;55.682;37.564;2023-07-08T01:24:04;99353.88;;;28.06;100.00
25084;BME280;13075;55.682;37.564;2023-07-08T01:26:31;99358.13;;;28.21;100.00
25084;BME280;13075;55.682;37.564;2023-07-08T01:28:58;99359.06;;;28.16;100.00
25084;BME280;13075;55.682;37.564;2023-07-08T01:31:24;99363.16;;;28.27;100.00
25084;BME280;13075;55.682;37.564;2023-07-08T01:33:50;99361.84;;;28.25;100.00
25084;BME280;13075;55.682;37.564;2023-07-08T01:36:16;99364.72;;;28.11;100.00
25084;BME280;13075;55.682;37.564;2023-07-08T01:38:42;99363.13;;;28.19;100.00
25084;BME280;13075;55.682;37.564;2023-07-08T01:41:10;99369.16;;;28.38;100.00
25084;BME280;13075;55.682;37.564;2023-07-08T01:43:36;99365.31;;;28.39;100.00
25084;BME280;13075;55.682;37.564;2023-07-08T01:46:02;99354.13;;;28.44;100.00
25084;BME280;13075;55.682;37.564;2023-07-08T01:48:28;99353.94;;;28.23;100.00
25084;BME280;13075;55.682;37.564;2023-07-08T01:51:01;99361.53;;;28.26;100.00
25084;BME280;13075;55.682;37.564;2023-07-08T01:55:59;99356.31;;;28.08;100.00
25084;BME280;13075;55.682;37.564;2023-07-08T01:58:25;99353.91;;;28.15;100.00
25084;BME280;13075;55.682;37.564;2023-07-08T02:00:51;99357.66;;;28.27;100.00
25084;BME280;13075;55.682;37.564;2023-07-08T02:03:16;99360.19;;;28.07;100.00
25084;BME280;13075;55.682;37.564;2023-07-08T02:05:42;99368.38;;;27.90;100.00
25084;BME280;13075;55.682;37.564;2023-07-08T02:08:08;99358.34;;;27.94;100.00
25084;BME280;13075;55.682;37.564;2023-07-08T02:10:33;99359.53;;;28.01;100.00
25084;BME280;13075;55.682;37.564;2023-07-08T02:12:59;99357.31;;;27.81;100.00
25084;BME280;13075;55.682;37.564;2023-07-08T02:15:28;99361.16;;;28.02;100.00
25084;BME280;13075;55.682;37.564;2023-07-08T02:17:53;99357.66;;;27.88;100.00
25084;BME280;13075;55.682;37.564;2023-07-08T02:20:19;99354.41;;;28.25;100.00
25084;BME280;13075;55.682;37.564;2023-07-08T02:22:45;99346.78;;;28.14;100.00
25084;BME280;13075;55.682;37.564;2023-07-08T02:25:10;99345.78;;;28.01;100.00
25084;BME280;13075;55.682;37.564;2023-07-08T02:27:36;99345.00;;;28.26;100.00
25084;BME280;13075;55.682;37.564;2023-07-08T02:30:02;99352.00;;;28.32;100.00
25084;BME280;13075;55.682;37.564;2023-07-08T02:32:28;99341.47;;;28.26;100.00
25084;BME280;13075;55.682;37.564;2023-07-08T02:34:53;99350.31;;;28.06;100.00
25084;BME280;13075;55.682;37.564;2023-07-08T02:37:18;99354.22;;;28.05;100.00
25084;BME280;13075;55.682;37.564;2023-07-08T02:39:44;99342.03;;;27.97;100.00
25084;BME280;13075;55.682;37.564;2023-07-08T02:42:10;99351.63;;;28.17;100.00
25084;BME280;13075;55.682;37.564;2023-07-08T02:44:35;99355.88;;;28.23;100.00
25084;BME280;13075;55.682;37.564;2023-07-08T02:47:01;99362.97;;;28.24;100.00
25084;BME280;13075;55.682;37.564;2023-07-08T02:49:26;99368.66;;;28.27;100.00
25084;BME280;13075;55.682;37.564;2023-07-08T02:51:51;99361.56;;;28.35;100.00
25084;BME280;13075;55.682;37.564;2023-07-08T02:54:17;99364.56;;;28.16;100.00
25084;BME280;13075;55.682;37.564;2023-07-08T02:56:42;99349.28;;;27.93;100.00
25084;BME280;13075;55.682;37.564;2023-07-08T02:59:08;99347.25;;;28.07;100.00
25084;BME280;13075;55.682;37.564;2023-07-08T03:01:33;99330.63;;;28.38;100.00
25084;BME280;13075;55.682;37.564;2023-07-08T03:04:07;99324.31;;;28.37;100.00
25084;BME280;13075;55.682;37.564;2023-07-08T03:06:34;99319.16;;;28.36;100.00
25084;BME280;13075;55.682;37.564;2023-07-08T03:09:00;99311.66;;;28.19;100.00
25084;BME280;13075;55.682;37.564;2023-07-08T03:11:25;99328.34;;;28.23;100.00
25084;BME280;13075;55.682;37.564;2023-07-08T03:13:50;99331.25;;;28.18;100.00
25084;BME280;13075;55.682;37.564;2023-07-08T03:16:17;99338.06;;;28.20;100.00
25084;BME280;13075;55.682;37.564;2023-07-08T03:18:42;99350.22;;;28.28;100.00
25084;BME280;13075;55.682;37.564;2023-07-08T03:21:15;99340.88;;;27.90;100.00
25084;BME280;13075;55.682;37.564;2023-07-08T03:23:41;99346.47;;;28.15;100.00
25084;BME280;13075;55.682;37.564;2023-07-08T03:26:11;99352.88;;;28.76;100.00
25084;BME280;13075;55.682;37.564;2023-07-08T03:28:38;99352.38;;;28.74;100.00
25084;BME280;13075;55.682;37.564;2023-07-08T03:31:04;99356.91;;;29.04;100.00
25084;BME280;13075;55.682;37.564;2023-07-08T03:33:30;99353.66;;;28.68;100.00
25084;BME280;13075;55.682;37.564;2023-07-08T03:35:55;99352.06;;;28.84;100.00
25084;BME280;13075;55.682;37.564;2023-07-08T03:38:21;99338.59;;;28.91;100.00
25084;BME280;13075;55.682;37.564;2023-07-08T03:40:46;99339.41;;;29.09;100.00
25084;BME280;13075;55.682;37.564;2023-07-08T03:43:11;99339.25;;;29.05;100.00
25084;BME280;13075;55.682;37.564;2023-07-08T03:45:37;99330.78;;;29.19;100.00
25084;BME280;13075;55.682;37.564;2023-07-08T03:48:03;99336.31;;;29.19;100.00
25084;BME280;13075;55.682;37.564;2023-07-08T03:50:30;99339.56;;;29.03;100.00
25084;BME280;13075;55.682;37.564;2023-07-08T03:52:56;99333.91;;;28.91;100.00
25084;BME280;13075;55.682;37.564;2023-07-08T03:55:26;99334.22;;;28.56;100.00
25084;BME280;13075;55.682;37.564;2023-07-08T03:57:52;99336.31;;;29.01;100.00
25084;BME280;13075;55.682;37.564;2023-07-08T04:00:17;99325.13;;;29.24;100.00
25084;BME280;13075;55.682;37.564;2023-07-08T04:02:43;99329.34;;;29.21;100.00
25084;BME280;13075;55.682;37.564;2023-07-08T04:05:15;99330.88;;;29.56;100.00
25084;BME280;13075;55.682;37.564;2023-07-08T04:07:40;99334.84;;;29.04;100.00
25084;BME280;13075;55.682;37.564;2023-07-08T04:10:06;99335.44;;;29.44;100.00
25084;BME280;13075;55.682;37.564;2023-07-08T04:12:32;99344.81;;;29.60;100.00
25084;BME280;13075;55.682;37.564;2023-07-08T04:14:57;99345.56;;;29.23;100.00
25084;BME280;13075;55.682;37.564;2023-07-08T04:17:23;99346.69;;;29.22;100.00
25084;BME280;13075;55.682;37.564;2023-07-08T04:19:48;99349.69;;;29.54;100.00
25084;BME280;13075;55.682;37.564;2023-07-08T04:22:14;99354.28;;;29.42;100.00
25084;BME280;13075;55.682;37.564;2023-07-08T04:24:39;99354.31;;;29.08;100.00
25084;BME280;13075;55.682;37.564;2023-07-08T04:27:04;99350.59;;;28.95;100.00
25084;BME280;13075;55.682;37.564;2023-07-08T04:29:30;99345.88;;;29.13;100.00
25084;BME280;13075;55.682;37.564;2023-07-08T04:31:55;99349.00;;;28.77;100.00
25084;BME280;13075;55.682;37.564;2023-07-08T04:34:21;99347.81;;;29.12;100.00
25084;BME280;13075;55.682;37.564;2023-07-08T04:36:46;99352.53;;;29.20;100.00
25084;BME280;13075;55.682;37.564;2023-07-08T04:39:12;99366.13;;;29.17;100.00
25084;BME280;13075;55.682;37.564;2023-07-08T04:41:38;99371.19;;;29.23;100.00
25084;BME280;13075;55.682;37.564;2023-07-08T04:44:12;99371.66;;;29.08;100.00
25084;BME280;13075;55.682;37.564;2023-07-08T04:46:51;99369.22;;;29.07;100.00
25084;BME280;13075;55.682;37.564;2023-07-08T04:49:19;99362.09;;;28.97;100.00
25084;BME280;13075;55.682;37.564;2023-07-08T04:51:45;99355.75;;;28.54;100.00
25084;BME280;13075;55.682;37.564;2023-07-08T04:54:10;99363.22;;;28.79;100.00
25084;BME280;13075;55.682;37.564;2023-07-08T04:56:40;99354.81;;;28.92;100.00
25084;BME280;13075;55.682;37.564;2023-07-08T04:59:10;99342.88;;;28.06;100.00
25084;BME280;13075;55.682;37.564;2023-07-08T05:01:36;99345.22;;;27.91;100.00
25084;BME280;13075;55.682;37.564;2023-07-08T05:04:01;99352.84;;;28.41;100.00
25084;BME280;13075;55.682;37.564;2023-07-08T05:06:27;99372.00;;;28.72;100.00
25084;BME280;13075;55.682;37.564;2023-07-08T05:08:52;99382.84;;;28.69;100.00
25084;BME280;13075;55.682;37.564;2023-07-08T05:11:18;99381.19;;;28.59;100.00
25084;BME280;13075;55.682;37.564;2023-07-08T05:13:43;99388.28;;;28.60;100.00
25084;BME280;13075;55.682;37.564;2023-07-08T05:16:08;99390.63;;;28.67;100.00
25084;BME280;13075;55.682;37.564;2023-07-08T05:18:34;99383.41;;;28.40;100.00
25084;BME280;13075;55.682;37.564;2023-07-08T05:20:59;99385.88;;;28.41;100.00
25084;BME280;13075;55.682;37.564;2023-07-08T05:23:25;99380.84;;;28.43;100.00
25084;BME280;13075;55.682;37.564;2023-07-08T05:25:51;99380.66;;;28.40;100.00
25084;BME280;13075;55.682;37.564;2023-07-08T05:28:16;99385.03;;;28.41;100.00
25084;BME280;13075;55.682;37.564;2023-07-08T05:30:41;99387.47;;;28.42;100.00
25084;BME280;13075;55.682;37.564;2023-07-08T05:33:07;99385.19;;;28.36;100.00
25084;BME280;13075;55.682;37.564;2023-07-08T05:35:33;99381.88;;;28.65;100.00
25084;BME280;13075;55.682;37.564;2023-07-08T05:37:58;99382.13;;;28.55;100.00
25084;BME280;13075;55.682;37.564;2023-07-08T05:40:24;99378.91;;;28.44;100.00
25084;BME280;13075;55.682;37.564;2023-07-08T05:42:49;99373.28;;;28.75;100.00
25084;BME280;13075;55.682;37.564;2023-07-08T05:45:15;99379.28;;;28.77;100.00
25084;BME280;13075;55.682;37.564;2023-07-08T05:47:40;99376.34;;;29.08;100.00
25084;BME280;13075;55.682;37.564;2023-07-08T05:50:06;99378.59;;;29.14;100.00
25084;BME280;13075;55.682;37.564;2023-07-08T05:52:31;99372.31;;;29.05;100.00
25084;BME280;13075;55.682;37.564;2023-07-08T05:54:57;99361.44;;;29.09;100.00
25084;BME280;13075;55.682;37.564;2023-07-08T05:57:22;99365.00;;;29.26;100.00
25084;BME280;13075;55.682;37.564;2023-07-08T06:00:07;99354.16;;;29.21;100.00
25084;BME280;13075;55.682;37.564;2023-07-08T06:02:37;99364.81;;;29.14;100.00
25084;BME280;13075;55.682;37.564;2023-07-08T06:05:02;99362.25;;;29.26;100.00
25084;BME280;13075;55.682;37.564;2023-07-08T06:07:28;99360.75;;;29.46;100.00
25084;BME280;13075;55.682;37.564;2023-07-08T06:09:54;99357.66;;;29.47;100.00
25084;BME280;13075;55.682;37.564;2023-07-08T06:12:21;99349.41;;;29.47;100.00
25084;BME280;13075;55.682;37.564;2023-07-08T06:14:46;99346.84;;;29.25;100.00
25084;BME280;13075;55.682;37.564;2023-07-08T06:17:12;99350.59;;;28.86;100.00
25084;BME280;13075;55.682;37.564;2023-07-08T06:19:37;99349.28;;;29.10;100.00
25084;BME280;13075;55.682;37.564;2023-07-08T06:22:02;99349.94;;;28.89;100.00
25084;BME280;13075;55.682;37.564;2023-07-08T06:24:28;99346.50;;;29.18;100.00
25084;BME280;13075;55.682;37.564;2023-07-08T06:26:53;99350.94;;;28.85;100.00
25084;BME280;13075;55.682;37.564;2023-07-08T06:29:19;99338.91;;;29.07;100.00
25084;BME280;13075;55.682;37.564;2023-07-08T06:31:44;99345.47;;;29.48;100.00
25084;BME280;13075;55.682;37.564;2023-07-08T06:34:10;99344.53;;;29.44;100.00
25084;BME280;13075;55.682;37.564;2023-07-08T06:36:35;99337.44;;;29.18;100.00
25084;BME280;13075;55.682;37.564;2023-07-08T06:39:01;99333.56;;;29.19;100.00
25084;BME280;13075;55.682;37.564;2023-07-08T06:41:26;99325.13;;;29.24;100.00
25084;BME280;13075;55.682;37.564;2023-07-08T06:43:52;99328.28;;;29.51;98.37
25084;BME280;13075;55.682;37.564;2023-07-08T06:46:21;99328.56;;;29.58;99.32
25084;BME280;13075;55.682;37.564;2023-07-08T06:48:47;99329.41;;;29.50;100.00
25084;BME280;13075;55.682;37.564;2023-07-08T06:51:12;99328.03;;;29.27;100.00
25084;BME280;13075;55.682;37.564;2023-07-08T06:53:37;99329.94;;;29.44;100.00
25084;BME280;13075;55.682;37.564;2023-07-08T06:56:03;99323.59;;;29.43;100.00
25084;BME280;13075;55.682;37.564;2023-07-08T06:58:28;99330.66;;;29.24;100.00
25084;BME280;13075;55.682;37.564;2023-07-08T07:00:54;99334.53;;;29.31;100.00
25084;BME280;13075;55.682;37.564;2023-07-08T07:03:19;99340.19;;;29.18;100.00
25084;BME280;13075;55.682;37.564;2023-07-08T07:05:45;99341.16;;;29.22;100.00
25084;BME280;13075;55.682;37.564;2023-07-08T07:08:10;99348.94;;;29.28;100.00
25084;BME280;13075;55.682;37.564;2023-07-08T07:10:36;99340.72;;;28.77;100.00
25084;BME280;13075;55.682;37.564;2023-07-08T07:13:01;99340.88;;;29.06;100.00
25084;BME280;13075;55.682;37.564;2023-07-08T07:15:27;99342.97;;;29.00;100.00
25084;BME280;13075;55.682;37.564;2023-07-08T07:17:52;99337.75;;;28.48;100.00
25084;BME280;13075;55.682;37.564;2023-07-08T07:20:18;99338.78;;;28.77;100.00
25084;BME280;13075;55.682;37.564;2023-07-08T07:22:43;99330.16;;;28.36;100.00
25084;BME280;13075;55.682;37.564;2023-07-08T07:25:08;99332.06;;;28.27;100.00
25084;BME280;13075;55.682;37.564;2023-07-08T07:27:34;99337.13;;;28.51;100.00
25084;BME280;13075;55.682;37.564;2023-07-08T07:29:59;99337.75;;;28.48;100.00
25084;BME280;13075;55.682;37.564;2023-07-08T07:32:25;99331.78;;;28.97;100.00
25084;BME280;13075;55.682;37.564;2023-07-08T07:34:51;99331.97;;;29.00;100.00
25084;BME280;13075;55.682;37.564;2023-07-08T07:37:17;99339.38;;;29.17;100.00
25084;BME280;13075;55.682;37.564;2023-07-08T07:39:43;99338.25;;;28.58;100.00
25084;BME280;13075;55.682;37.564;2023-07-08T07:42:09;99333.91;;;28.74;100.00
25084;BME280;13075;55.682;37.564;2023-07-08T07:44:35;99339.56;;;29.29;100.00
25084;BME280;13075;55.682;37.564;2023-07-08T07:47:01;99341.81;;;29.10;100.00
25084;BME280;13075;55.682;37.564;2023-07-08T07:49:26;99350.41;;;29.26;100.00
25084;BME280;13075;55.682;37.564;2023-07-08T07:51:51;99348.41;;;29.52;98.51
25084;BME280;13075;55.682;37.564;2023-07-08T07:54:17;99349.91;;;29.15;98.00
25084;BME280;13075;55.682;37.564;2023-07-08T07:56:42;99356.06;;;29.12;98.49
25084;BME280;13075;55.682;37.564;2023-07-08T07:59:08;99361.94;;;29.02;98.94
25084;BME280;13075;55.682;37.564;2023-07-08T08:01:33;99359.16;;;29.02;100.00
25084;BME280;13075;55.682;37.564;2023-07-08T08:04:00;99365.81;;;29.10;100.00
25084;BME280;13075;55.682;37.564;2023-07-08T08:06:26;99364.03;;;29.31;98.38
25084;BME280;13075;55.682;37.564;2023-07-08T08:08:51;99371.28;;;29.44;97.16
25084;BME280;13075;55.682;37.564;2023-07-08T08:11:17;99368.72;;;29.22;97.18
25084;BME280;13075;55.682;37.564;2023-07-08T08:13:42;99367.56;;;29.40;97.19
25084;BME280;13075;55.682;37.564;2023-07-08T08:16:07;99375.72;;;29.11;99.87
25084;BME280;13075;55.682;37.564;2023-07-08T08:18:33;99372.47;;;29.09;98.85
25084;BME280;13075;55.682;37.564;2023-07-08T08:20:58;99379.75;;;29.13;99.82
25084;BME280;13075;55.682;37.564;2023-07-08T08:23:24;99378.16;;;28.95;100.00
25084;BME280;13075;55.682;37.564;2023-07-08T08:25:50;99373.25;;;29.09;99.63
25084;BME280;13075;55.682;37.564;2023-07-08T08:28:15;99374.25;;;28.79;100.00
25084;BME280;13075;55.682;37.564;2023-07-08T08:30:41;99380.72;;;29.17;99.95
25084;BME280;13075;55.682;37.564;2023-07-08T08:33:06;99376.81;;;29.44;96.79
25084;BME280;13075;55.682;37.564;2023-07-08T08:35:32;99373.09;;;29.31;94.90
25084;BME280;13075;55.682;37.564;2023-07-08T08:37:57;99374.41;;;28.99;95.24
25084;BME280;13075;55.682;37.564;2023-07-08T08:40:22;99380.72;;;29.17;95.27
25084;BME280;13075;55.682;37.564;2023-07-08T08:42:52;99371.47;;;29.39;94.11
25084;BME280;13075;55.682;37.564;2023-07-08T08:45:19;99373.88;;;29.40;95.11
25084;BME280;13075;55.682;37.564;2023-07-08T08:47:57;99369.53;;;29.39;93.20
25084;BME280;13075;55.682;37.564;2023-07-08T08:52:58;99377.00;;;29.04;94.58
25084;BME280;13075;55.682;37.564;2023-07-08T08:55:24;99375.84;;;29.14;97.02
25084;BME280;13075;55.682;37.564;2023-07-08T09:00:24;99367.06;;;29.55;92.24
25084;BME280;13075;55.682;37.564;2023-07-08T09:05:16;99371.03;;;30.12;90.83
25084;BME280;13075;55.682;37.564;2023-07-08T09:10:16;99366.09;;;30.35;87.85
25084;BME280;13075;55.682;37.564;2023-07-08T09:12:45;99370.59;;;30.31;86.38
25084;BME280;13075;55.682;37.564;2023-07-08T09:15:13;99365.78;;;29.99;86.24
25084;BME280;13075;55.682;37.564;2023-07-08T09:17:39;99355.97;;;30.60;83.87
25084;BME280;13075;55.682;37.564;2023-07-08T09:27:21;99361.38;;;32.60;69.48
25084;BME280;13075;55.682;37.564;2023-07-08T09:29:46;99354.44;;;32.66;68.08
25084;BME280;13075;55.682;37.564;2023-07-08T09:32:16;99356.44;;;32.29;67.64
25084;BME280;13075;55.682;37.564;2023-07-08T09:34:52;99357.88;;;32.23;67.51
25084;BME280;13075;55.682;37.564;2023-07-08T09:37:25;99358.66;;;31.87;69.63
25084;BME280;13075;55.682;37.564;2023-07-08T09:39:52;99360.91;;;31.61;69.97
25084;BME280;13075;55.682;37.564;2023-07-08T09:42:17;99362.72;;;31.45;70.53
25084;BME280;13075;55.682;37.564;2023-07-08T09:44:44;99361.50;;;31.91;70.44
25084;BME280;13075;55.682;37.564;2023-07-08T09:47:23;99359.78;;;31.98;67.34
25084;BME280;13075;55.682;37.564;2023-07-08T09:49:49;99364.28;;;31.67;67.49
25084;BME280;13075;55.682;37.564;2023-07-08T09:52:16;99370.66;;;31.47;67.15
25084;BME280;13075;55.682;37.564;2023-07-08T09:54:42;99369.59;;;31.72;67.88
25084;BME280;13075;55.682;37.564;2023-07-08T09:57:29;99369.91;;;31.25;65.51
25084;BME280;13075;55.682;37.564;2023-07-08T09:59:55;99369.13;;;31.82;63.33
25084;BME280;13075;55.682;37.564;2023-07-08T10:04:54;99350.78;;;32.38;62.85
25084;BME280;13075;55.682;37.564;2023-07-08T10:07:20;99358.97;;;31.98;63.58
25084;BME280;13075;55.682;37.564;2023-07-08T10:09:50;99364.28;;;32.51;63.13
25084;BME280;13075;55.682;37.564;2023-07-08T10:12:18;99369.72;;;32.36;61.18
25084;BME280;13075;55.682;37.564;2023-07-08T10:14:49;99363.09;;;31.80;62.88
25084;BME280;13075;55.682;37.564;2023-07-08T10:17:16;99361.06;;;31.77;63.36
25084;BME280;13075;55.682;37.564;2023-07-08T10:19:42;99355.03;;;31.75;63.86
25084;BME280;13075;55.682;37.564;2023-07-08T10:50:24;99340.47;;;32.62;57.29
25084;BME280;13075;55.682;37.564;2023-07-08T11:08:31;99348.38;;;31.76;57.09
25084;BME280;13075;55.682;37.564;2023-07-08T11:13:11;99352.63;;;32.46;56.50
25084;BME280;13075;55.682;37.564;2023-07-08T11:18:07;99347.09;;;32.86;54.64
25084;BME280;13075;55.682;37.564;2023-07-08T11:23:05;99342.41;;;32.74;52.07
25084;BME280;13075;55.682;37.564;2023-07-08T11:25:33;99342.94;;;32.92;51.70
25084;BME280;13075;55.682;37.564;2023-07-08T11:28:02;99349.66;;;33.18;51.07
25084;BME280;13075;55.682;37.564;2023-07-08T11:30:30;99353.47;;;33.42;51.27
25084;BME280;13075;55.682;37.564;2023-07-08T11:32:59;99354.91;;;33.08;49.83
25084;BME280;13075;55.682;37.564;2023-07-08T11:35:37;99353.38;;;32.71;50.65
25084;BME280;13075;55.682;37.564;2023-07-08T11:38:03;99354.31;;;32.75;49.64
25084;BME280;13075;55.682;37.564;2023-07-08T11:40:29;99351.34;;;32.55;51.45
25084;BME280;13075;55.682;37.564;2023-07-08T11:43:05;99354.56;;;32.97;51.68
25084;BME280;13075;55.682;37.564;2023-07-08T11:45:33;99344.28;;;32.70;53.59
25084;BME280;13075;55.682;37.564;2023-07-08T11:48:11;99350.47;;;32.15;53.56
25084;BME280;13075;55.682;37.564;2023-07-08T11:50:38;99348.94;;;32.42;52.97
25084;BME280;13075;55.682;37.564;2023-07-08T11:53:12;99344.78;;;32.48;52.72
25084;BME280;13075;55.682;37.564;2023-07-08T11:55:43;99343.75;;;32.40;50.78
25084;BME280;13075;55.682;37.564;2023-07-08T12:03:49;99345.50;;;32.09;51.40
25084;BME280;13075;55.682;37.564;2023-07-08T12:08:52;99345.53;;;32.21;51.09
25084;BME280;13075;55.682;37.564;2023-07-08T12:11:18;99340.88;;;32.25;49.74
25084;BME280;13075;55.682;37.564;2023-07-08T12:13:44;99340.78;;;31.85;50.36
25084;BME280;13075;55.682;37.564;2023-07-08T12:16:10;99341.72;;;31.44;49.82
25084;BME280;13075;55.682;37.564;2023-07-08T12:18:36;99347.22;;;31.89;49.40
25084;BME280;13075;55.682;37.564;2023-07-08T12:21:04;99348.72;;;31.86;47.68
25084;BME280;13075;55.682;37.564;2023-07-08T12:23:29;99346.88;;;31.78;47.17
25084;BME280;13075;55.682;37.564;2023-07-08T12:25:56;99347.19;;;31.65;46.67
25084;BME280;13075;55.682;37.564;2023-07-08T12:28:21;99343.97;;;31.51;47.21
25084;BME280;13075;55.682;37.564;2023-07-08T12:30:47;99345.66;;;31.43;46.79
25084;BME280;13075;55.682;37.564;2023-07-08T12:33:14;99352.72;;;31.20;47.94
25084;BME280;13075;55.682;37.564;2023-07-08T12:35:41;99352.66;;;30.87;48.25
25084;BME280;13075;55.682;37.564;2023-07-08T12:38:28;99349.31;;;31.35;48.80
25084;BME280;13075;55.682;37.564;2023-07-08T12:41:01;99343.69;;;30.90;49.68
25084;BME280;13075;55.682;37.564;2023-07-08T12:43:26;99342.59;;;30.91;50.02
25084;BME280;13075;55.682;37.564;2023-07-08T12:45:52;99346.91;;;31.13;50.12
25084;BME280;13075;55.682;37.564;2023-07-08T12:48:17;99344.78;;;31.51;49.27
25084;BME280;13075;55.682;37.564;2023-07-08T12:50:43;99338.78;;;31.61;49.61
25084;BME280;13075;55.682;37.564;2023-07-08T12:53:10;99344.19;;;31.46;49.98
25084;BME280;13075;55.682;37.564;2023-07-08T12:55:38;99336.50;;;31.30;50.37
25084;BME280;13075;55.682;37.564;2023-07-08T12:58:04;99345.50;;;31.39;50.00
25084;BME280;13075;55.682;37.564;2023-07-08T13:00:31;99343.16;;;31.50;50.01
25084;BME280;13075;55.682;37.564;2023-07-08T13:03:05;99343.81;;;31.47;50.02
25084;BME280;13075;55.682;37.564;2023-07-08T13:05:32;99340.88;;;31.76;50.45
25084;BME280;13075;55.682;37.564;2023-07-08T13:07:57;99339.59;;;31.86;49.47
25084;BME280;13075;55.682;37.564;2023-07-08T13:10:24;99344.41;;;31.53;51.09
25084;BME280;13075;55.682;37.564;2023-07-08T13:12:56;99348.72;;;31.41;50.57
25084;BME280;13075;55.682;37.564;2023-07-08T13:15:28;99352.53;;;31.94;50.91
25084;BME280;13075;55.682;37.564;2023-07-08T13:17:55;99349.00;;;32.06;50.05
25084;BME280;13075;55.682;37.564;2023-07-08T13:20:21;99343.19;;;31.98;48.92
25084;BME280;13075;55.682;37.564;2023-07-08T13:22:50;99340.16;;;31.67;49.98
25084;BME280;13075;55.682;37.564;2023-07-08T13:25:17;99327.13;;;31.56;51.29
25084;BME280;13075;55.682;37.564;2023-07-08T13:27:53;99339.84;;;31.69;49.75
25084;BME280;13075;55.682;37.564;2023-07-08T13:30:20;99336.94;;;31.77;49.70
25084;BME280;13075;55.682;37.564;2023-07-08T13:32:53;99336.59;;;31.22;50.49
25084;BME280;13075;55.682;37.564;2023-07-08T13:37:47;99332.44;;;31.49;50.95
25084;BME280;13075;55.682;37.564;2023-07-08T13:40:15;99327.38;;;31.51;51.44
25084;BME280;13075;55.682;37.564;2023-07-08T13:42:46;99332.63;;;31.11;51.69
25084;BME280;13075;55.682;37.564;2023-07-08T13:45:20;99327.22;;;31.47;50.29
25084;BME280;13075;55.682;37.564;2023-07-08T13:47:56;99325.41;;;31.63;50.13
25084;BME280;13075;55.682;37.564;2023-07-08T13:50:23;99323.47;;;31.76;48.22
25084;BME280;13075;55.682;37.564;2023-07-08T13:52:54;99329.13;;;32.03;48.38
25084;BME280;13075;55.682;37.564;2023-07-08T13:55:19;99326.28;;;32.00;47.85
25084;BME280;13075;55.682;37.564;2023-07-08T13:57:45;99328.06;;;31.96;47.61
25084;BME280;13075;55.682;37.564;2023-07-08T14:00:11;99330.94;;;31.63;49.81
25084;BME280;13075;55.682;37.564;2023-07-08T14:02:43;99322.44;;;31.92;48.40
25084;BME280;13075;55.682;37.564;2023-07-08T14:05:09;99321.28;;;31.69;48.86
25084;BME280;13075;55.682;37.564;2023-07-08T14:07:36;99325.81;;;31.41;47.70
25084;BME280;13075;55.682;37.564;2023-07-08T14:10:04;99324.28;;;31.64;47.40
25084;BME280;13075;55.682;37.564;2023-07-08T14:12:29;99323.38;;;31.39;47.44